createdAt,value
2024-02-24T00:00:34.119Z,35.93
2024-02-24T00:03:02.952Z,36.06
2024-02-24T00:05:31.974Z,35.95
2024-02-24T00:08:01.596Z,35.64
2024-02-24T00:10:30.515Z,35.69
2024-02-24T00:12:59.663Z,35.66
2024-02-24T00:15:29.142Z,35.45
2024-02-24T00:17:58.116Z,35.36
2024-02-24T00:20:27.296Z,35.60
2024-02-24T00:22:56.171Z,35.60
2024-02-24T00:25:25.076Z,35.78
2024-02-24T00:27:54.058Z,35.82
2024-02-24T00:30:23.051Z,35.85
2024-02-24T00:32:52.006Z,35.77
2024-02-24T00:35:20.943Z,35.97
2024-02-24T00:37:49.900Z,36.24
2024-02-24T00:40:18.978Z,36.28
2024-02-24T00:42:48.011Z,36.19
2024-02-24T00:45:17.452Z,36.21
2024-02-24T00:47:46.545Z,36.40
2024-02-24T00:50:16.072Z,36.47
2024-02-24T00:52:44.998Z,36.36
2024-02-24T00:55:13.952Z,36.34
2024-02-24T00:57:42.728Z,36.52
2024-02-24T01:00:12.523Z,36.59
2024-02-24T01:02:43.907Z,36.81
2024-02-24T01:05:13.323Z,36.97
2024-02-24T01:07:42.492Z,37.09
2024-02-24T01:13:38.202Z,37.20
2024-02-24T01:16:06.757Z,37.25
2024-02-24T01:18:34.939Z,37.43
2024-02-24T01:21:05.054Z,37.63
2024-02-24T01:23:34.469Z,37.85
2024-02-24T01:26:04.077Z,37.75
2024-02-24T01:28:32.641Z,37.66
2024-02-24T01:31:01.486Z,37.69
2024-02-24T01:33:30.331Z,37.71
2024-02-24T01:35:58.611Z,37.73
2024-02-24T01:38:26.938Z,37.90
2024-02-24T01:40:55.162Z,37.85
2024-02-24T01:43:30.764Z,37.88
2024-02-24T01:45:59.025Z,37.78
2024-02-24T01:48:27.320Z,37.87
2024-02-24T01:50:56.862Z,38.29
2024-02-24T01:53:26.825Z,38.57
2024-02-24T01:55:56.656Z,38.39
2024-02-24T01:58:27.199Z,38.54
2024-02-24T02:00:58.438Z,38.83
2024-02-24T02:03:27.019Z,38.96
2024-02-24T02:05:56.323Z,39.17
2024-02-24T02:08:24.571Z,39.32
2024-02-24T02:10:56.864Z,39.39
2024-02-24T02:13:25.768Z,39.56
2024-02-24T02:15:59.028Z,39.70
2024-02-24T02:18:28.974Z,39.87
2024-02-24T02:24:06.774Z,40.24
2024-02-24T02:26:36.034Z,40.43
2024-02-24T02:29:05.220Z,40.56
2024-02-24T02:31:34.357Z,40.59
2024-02-24T02:34:03.445Z,40.40
2024-02-24T02:36:32.423Z,40.40
2024-02-24T02:39:01.298Z,40.47
2024-02-24T02:44:35.609Z,40.79
2024-02-24T02:47:14.511Z,40.91
2024-02-24T02:49:49.596Z,40.96
2024-02-24T02:52:18.601Z,40.82
2024-02-24T02:55:43.326Z,41.16
2024-02-24T02:58:13.829Z,41.14
2024-02-24T03:00:42.948Z,41.02
2024-02-24T03:03:11.866Z,40.91
2024-02-24T03:05:41.042Z,40.85
2024-02-24T03:08:10.165Z,40.83
2024-02-24T03:10:39.791Z,40.75
2024-02-24T03:13:08.930Z,40.83
2024-02-24T03:15:38.287Z,40.92
2024-02-24T03:18:07.522Z,40.84
2024-02-24T03:20:36.606Z,41.19
2024-02-24T03:23:07.009Z,41.13
2024-02-24T03:25:36.198Z,41.14
2024-02-24T03:28:06.430Z,41.40
2024-02-24T03:30:35.488Z,41.55
2024-02-24T03:33:05.126Z,41.52
2024-02-24T03:35:34.387Z,41.36
2024-02-24T03:38:03.426Z,41.41
2024-02-24T03:40:32.794Z,41.40
2024-02-24T03:43:01.801Z,41.32
2024-02-24T03:45:30.854Z,41.31
2024-02-24T03:47:59.851Z,41.37
2024-02-24T03:50:29.075Z,41.47
2024-02-24T03:52:58.189Z,41.43
2024-02-24T03:55:26.982Z,41.41
2024-02-24T03:57:56.029Z,41.56
2024-02-24T04:00:25.018Z,41.75
2024-02-24T04:02:54.028Z,41.85
2024-02-24T04:05:23.259Z,41.77
2024-02-24T04:07:52.332Z,41.66
2024-02-24T04:10:21.444Z,41.44
2024-02-24T04:12:50.547Z,41.34
2024-02-24T04:15:24.332Z,41.38
2024-02-24T04:17:53.422Z,41.54
2024-02-24T04:20:22.737Z,41.43
2024-02-24T04:22:51.786Z,41.32
2024-02-24T04:25:37.218Z,41.31
2024-02-24T04:28:06.568Z,41.33
2024-02-24T04:30:37.277Z,41.36
2024-02-24T04:33:06.768Z,41.45
2024-02-24T04:35:36.605Z,41.44
2024-02-24T04:38:08.656Z,41.41
2024-02-24T04:40:38.166Z,41.40
2024-02-24T04:43:07.348Z,41.33
2024-02-24T04:45:37.730Z,41.39
2024-02-24T04:48:07.538Z,41.53
2024-02-24T04:50:36.757Z,41.23
2024-02-24T04:53:06.325Z,41.27
2024-02-24T04:55:35.280Z,41.34
2024-02-24T04:58:04.555Z,41.34
2024-02-24T05:00:34.607Z,41.21
2024-02-24T05:03:04.613Z,41.27
2024-02-24T05:05:35.906Z,41.42
2024-02-24T05:11:28.573Z,41.99
2024-02-24T05:13:57.579Z,41.90
2024-02-24T05:16:27.392Z,41.83
2024-02-24T05:18:57.961Z,41.95
2024-02-24T05:21:27.378Z,41.98
2024-02-24T05:23:59.933Z,42.16
2024-02-24T05:26:31.706Z,42.12
2024-02-24T05:29:02.970Z,41.87
2024-02-24T05:31:32.439Z,41.94
2024-02-24T05:34:01.712Z,41.95
2024-02-24T05:36:30.722Z,42.06
2024-02-24T05:39:01.168Z,42.18
2024-02-24T05:41:30.280Z,42.07
2024-02-24T05:44:00.245Z,42.02
2024-02-24T05:46:29.318Z,42.12
2024-02-24T05:48:59.198Z,42.36
2024-02-24T05:51:29.241Z,42.40
2024-02-24T05:53:58.631Z,42.40
2024-02-24T05:56:29.341Z,42.47
2024-02-24T05:58:58.274Z,42.70
2024-02-24T06:01:27.310Z,42.61
2024-02-24T06:03:56.988Z,42.61
2024-02-24T06:06:26.257Z,42.70
2024-02-24T06:08:55.728Z,42.62
2024-02-24T06:11:24.786Z,42.64
2024-02-24T06:17:20.591Z,42.79
2024-02-24T06:19:48.893Z,42.82
2024-02-24T06:22:17.350Z,42.93
2024-02-24T06:24:46.048Z,42.94
2024-02-24T06:27:14.376Z,42.96
2024-02-24T06:29:43.353Z,42.99
2024-02-24T06:32:12.097Z,43.00
2024-02-24T06:34:47.853Z,42.96
2024-02-24T06:37:16.414Z,43.00
2024-02-24T06:39:45.026Z,43.19
2024-02-24T06:42:13.676Z,43.10
2024-02-24T06:44:43.222Z,43.08
2024-02-24T06:47:21.344Z,43.28
2024-02-24T06:49:57.365Z,43.37
2024-02-24T06:52:25.630Z,43.57
2024-02-24T06:54:53.954Z,43.60
2024-02-24T06:57:22.476Z,44.72
2024-02-24T06:59:50.785Z,45.21
2024-02-24T07:02:19.497Z,43.76
2024-02-24T07:04:51.928Z,43.86
2024-02-24T07:07:20.755Z,43.90
2024-02-24T07:09:49.534Z,43.87
2024-02-24T07:12:17.953Z,43.66
2024-02-24T07:14:47.265Z,43.69
2024-02-24T07:17:15.571Z,43.85
2024-02-24T07:19:44.193Z,44.12
2024-02-24T07:22:17.512Z,44.31
2024-02-24T07:24:45.710Z,44.30
2024-02-24T07:27:14.167Z,44.13
2024-02-24T07:29:42.551Z,44.43
2024-02-24T07:32:11.171Z,44.59
2024-02-24T07:34:39.816Z,44.54
2024-02-24T07:37:08.267Z,44.37
2024-02-24T07:39:37.934Z,44.61
2024-02-24T07:42:06.696Z,44.72
2024-02-24T07:44:35.124Z,44.71
2024-02-24T07:47:04.908Z,45.08
2024-02-24T07:49:33.214Z,45.51
2024-02-24T07:52:01.552Z,45.80
2024-02-24T07:54:29.816Z,45.70
2024-02-24T07:56:58.099Z,45.57
2024-02-24T07:59:26.453Z,45.63
2024-02-24T08:01:54.814Z,45.54
2024-02-24T08:04:23.121Z,45.63
2024-02-24T08:06:51.580Z,45.39
2024-02-24T08:09:37.926Z,45.30
2024-02-24T08:12:07.526Z,45.42
2024-02-24T08:14:37.398Z,45.82
2024-02-24T08:17:08.099Z,46.20
2024-02-24T08:19:37.635Z,46.03
2024-02-24T08:22:06.721Z,46.17
2024-02-24T08:24:35.728Z,46.40
2024-02-24T08:27:05.043Z,46.86
2024-02-24T08:29:34.506Z,46.84
2024-02-24T08:32:08.546Z,46.44
2024-02-24T08:34:37.552Z,46.37
2024-02-24T08:43:50.424Z,46.62
2024-02-24T08:46:21.608Z,46.31
2024-02-24T08:49:06.759Z,46.21
2024-02-24T08:51:35.779Z,46.55
2024-02-24T08:54:04.968Z,46.37
2024-02-24T08:56:34.720Z,46.82
2024-02-24T08:59:03.848Z,46.69
2024-02-24T09:01:32.770Z,46.51
2024-02-24T09:04:03.818Z,46.53
2024-02-24T09:06:33.671Z,46.62
2024-02-24T09:09:02.838Z,46.76
2024-02-24T09:11:32.014Z,46.77
2024-02-24T09:14:01.444Z,46.62
2024-02-24T09:16:30.246Z,46.54
2024-02-24T09:19:00.817Z,46.52
2024-02-24T09:21:33.369Z,46.31
2024-02-24T09:24:02.735Z,46.27
2024-02-24T09:26:31.768Z,46.37
2024-02-24T09:29:00.649Z,46.44
2024-02-24T09:31:30.316Z,46.52
2024-02-24T09:34:00.212Z,46.45
2024-02-24T09:36:31.061Z,46.31
2024-02-24T09:39:02.379Z,46.27
2024-02-24T09:41:31.731Z,46.21
2024-02-24T09:44:00.762Z,46.18
2024-02-24T09:46:31.026Z,45.97
2024-02-24T09:49:02.299Z,45.96
2024-02-24T09:51:32.515Z,45.86
2024-02-24T09:54:01.613Z,45.95
2024-02-24T09:56:33.005Z,45.90
2024-02-24T09:59:05.022Z,45.81
2024-02-24T10:01:38.618Z,45.75
2024-02-24T10:04:09.207Z,45.67
2024-02-24T10:06:41.995Z,45.43
2024-02-24T10:09:11.225Z,45.56
2024-02-24T10:11:42.213Z,45.49
2024-02-24T10:14:11.833Z,45.43
2024-02-24T10:16:41.731Z,45.76
2024-02-24T10:19:11.042Z,45.66
2024-02-24T10:21:40.128Z,45.59
2024-02-24T10:24:09.200Z,45.32
2024-02-24T10:26:38.143Z,45.12
2024-02-24T10:29:10.104Z,45.11
2024-02-24T10:31:39.655Z,44.91
2024-02-24T10:34:08.908Z,44.83
2024-02-24T10:36:39.262Z,44.41
2024-02-24T10:39:09.494Z,44.39
2024-02-24T10:41:39.402Z,44.37
2024-02-24T10:44:18.751Z,44.45
2024-02-24T10:46:52.445Z,44.19
2024-02-24T10:52:36.554Z,44.19
2024-02-24T10:55:06.990Z,43.96
2024-02-24T10:57:38.363Z,44.25
2024-02-24T11:00:34.023Z,44.32
2024-02-24T11:03:06.152Z,44.41
2024-02-24T11:05:36.985Z,44.26
2024-02-24T11:08:26.102Z,44.36
2024-02-24T11:10:56.017Z,44.13
2024-02-24T11:13:24.958Z,43.74
2024-02-24T11:15:57.515Z,43.49
2024-02-24T11:18:51.554Z,43.59
2024-02-24T11:22:04.797Z,43.22
2024-02-24T11:24:38.999Z,43.12
2024-02-24T11:27:08.609Z,43.35
2024-02-24T11:29:40.541Z,43.57
2024-02-24T11:32:15.301Z,43.68
2024-02-24T11:34:48.517Z,43.86
2024-02-24T11:37:22.528Z,43.86
2024-02-24T11:39:53.937Z,43.88
2024-02-24T11:42:25.674Z,43.87
2024-02-24T11:44:56.282Z,44.02
2024-02-24T11:47:42.623Z,44.08
2024-02-24T11:50:11.978Z,44.20
2024-02-24T11:52:41.350Z,44.16
2024-02-24T11:55:10.929Z,44.08
2024-02-24T11:57:40.026Z,44.05
2024-02-24T12:00:10.853Z,43.95
2024-02-24T12:02:40.416Z,43.99
2024-02-24T12:05:19.501Z,44.06
2024-02-24T12:07:49.093Z,44.15
2024-02-24T12:10:18.338Z,44.48
2024-02-24T12:12:48.061Z,44.43
2024-02-24T12:15:18.819Z,44.36
2024-02-24T12:17:49.327Z,44.40
2024-02-24T12:20:18.402Z,44.59
2024-02-24T12:22:47.491Z,44.83
2024-02-24T12:25:17.490Z,45.01
2024-02-24T12:27:46.739Z,45.11
2024-02-24T12:30:16.053Z,45.16
2024-02-24T12:32:46.569Z,45.21
2024-02-24T12:35:19.231Z,45.33
2024-02-24T12:37:49.144Z,45.24
2024-02-24T12:40:38.898Z,45.35
2024-02-24T12:43:09.759Z,45.36
2024-02-24T12:45:39.280Z,45.31
2024-02-24T12:48:10.100Z,45.31
2024-02-24T12:50:39.458Z,45.69
2024-02-24T12:53:10.424Z,45.66
2024-02-24T12:55:39.414Z,45.57
2024-02-24T12:58:08.541Z,45.60
2024-02-24T13:00:42.121Z,45.76
2024-02-24T13:03:11.306Z,45.70
2024-02-24T13:05:40.461Z,45.59
2024-02-24T13:08:11.781Z,45.61
2024-02-24T13:10:40.794Z,45.70
2024-02-24T13:13:09.857Z,45.58
2024-02-24T13:15:38.846Z,45.58
2024-02-24T13:18:09.125Z,45.41
2024-02-24T13:20:39.691Z,45.45
2024-02-24T13:23:08.799Z,45.08
2024-02-24T13:25:37.684Z,45.17
2024-02-24T13:28:09.271Z,45.09
2024-02-24T13:30:38.254Z,45.23
2024-02-24T13:33:07.606Z,45.23
2024-02-24T13:35:37.367Z,45.23
2024-02-24T13:38:06.384Z,45.09
2024-02-24T13:40:35.580Z,45.10
2024-02-24T13:43:05.391Z,45.33
2024-02-24T13:45:34.260Z,45.20
2024-02-24T13:48:03.253Z,45.10
2024-02-24T13:50:32.510Z,45.23
2024-02-24T13:53:02.348Z,45.10
2024-02-24T13:55:31.432Z,45.32
2024-02-24T13:58:05.021Z,45.30
2024-02-24T14:00:34.172Z,45.41
2024-02-24T14:03:04.802Z,45.43
2024-02-24T14:06:09.115Z,45.35
2024-02-24T14:08:38.062Z,45.33
2024-02-24T14:11:07.729Z,45.22
2024-02-24T14:13:37.530Z,45.13
2024-02-24T14:16:06.546Z,45.03
2024-02-24T14:18:37.128Z,44.77
2024-02-24T14:21:06.618Z,44.84
2024-02-24T14:23:34.840Z,44.96
2024-02-24T14:26:03.206Z,45.16
2024-02-24T14:28:31.614Z,45.54
2024-02-24T14:31:00.524Z,44.93
2024-02-24T14:33:28.849Z,44.90
2024-02-24T14:35:57.576Z,44.82
2024-02-24T14:45:12.521Z,44.26
2024-02-24T14:47:41.889Z,44.46
2024-02-24T14:50:11.401Z,44.53
2024-02-24T14:52:41.933Z,44.44
2024-02-24T14:55:12.656Z,44.46
2024-02-24T14:57:42.072Z,44.39
2024-02-24T15:00:14.977Z,44.53
2024-02-24T15:02:52.974Z,44.76
2024-02-24T15:05:33.914Z,44.31
2024-02-24T15:08:04.617Z,44.51
2024-02-24T15:10:33.594Z,44.56
2024-02-24T15:13:02.535Z,44.52
2024-02-24T15:18:10.006Z,44.56
2024-02-24T15:20:39.014Z,44.28
2024-02-24T15:23:08.869Z,44.19
2024-02-24T15:25:37.796Z,44.30
2024-02-24T15:28:07.717Z,44.46
2024-02-24T15:30:36.903Z,44.31
2024-02-24T15:33:07.120Z,44.14
2024-02-24T15:35:36.348Z,43.86
2024-02-24T15:38:07.780Z,44.04
2024-02-24T15:40:39.796Z,44.25
2024-02-24T15:43:10.953Z,44.38
2024-02-24T15:45:40.560Z,44.34
2024-02-24T15:48:10.056Z,44.30
2024-02-24T15:50:39.087Z,44.48
2024-02-24T15:53:08.323Z,44.53
2024-02-24T15:55:37.407Z,44.65
2024-02-24T15:58:06.922Z,44.48
2024-02-24T16:00:35.876Z,44.63
2024-02-24T16:03:05.561Z,44.70
2024-02-24T16:05:34.760Z,44.57
2024-02-24T16:08:04.150Z,44.66
2024-02-24T16:10:33.318Z,44.61
2024-02-24T16:16:27.349Z,44.66
2024-02-24T16:18:56.461Z,44.53
2024-02-24T16:21:25.675Z,44.45
2024-02-24T16:23:54.794Z,44.21
2024-02-24T16:26:23.908Z,44.17
2024-02-24T16:28:53.185Z,43.98
2024-02-24T16:31:22.551Z,44.07
2024-02-24T16:33:54.614Z,43.72
2024-02-24T16:36:25.811Z,43.72
2024-02-24T16:38:57.818Z,43.91
2024-02-24T16:41:26.979Z,44.11
2024-02-24T16:43:56.063Z,44.02
2024-02-24T16:46:25.274Z,43.88
2024-02-24T16:48:55.290Z,43.98
2024-02-24T16:51:24.444Z,44.10
2024-02-24T16:53:53.585Z,44.11
2024-02-24T16:56:22.898Z,44.26
2024-02-24T16:58:52.876Z,44.49
2024-02-24T17:01:23.737Z,44.65
2024-02-24T17:03:53.194Z,44.89
2024-02-24T17:06:23.350Z,45.04
2024-02-24T17:08:52.885Z,45.31
2024-02-24T17:14:00.479Z,45.37
2024-02-24T17:16:30.267Z,45.35
2024-02-24T17:19:02.545Z,45.41
2024-02-24T17:21:32.495Z,45.91
2024-02-24T17:24:01.949Z,45.86
2024-02-24T17:26:31.347Z,46.18
2024-02-24T17:29:00.444Z,46.50
2024-02-24T17:31:29.966Z,46.61
2024-02-24T17:33:59.041Z,46.08
2024-02-24T17:36:28.078Z,45.54
2024-02-24T17:38:57.074Z,45.89
2024-02-24T17:41:26.267Z,46.35
2024-02-24T17:43:55.248Z,46.10
2024-02-24T17:46:25.067Z,46.21
2024-02-24T17:48:54.321Z,46.24
2024-02-24T17:51:25.849Z,46.19
2024-02-24T17:53:55.018Z,46.04
2024-02-24T17:56:24.307Z,46.12
2024-02-24T17:58:54.029Z,46.20
2024-02-24T18:01:23.773Z,46.21
2024-02-24T18:03:52.951Z,48.77
2024-02-24T18:06:22.180Z,49.14
2024-02-24T18:08:51.670Z,48.64
2024-02-24T18:11:22.168Z,48.71
2024-02-24T18:13:51.917Z,48.14
2024-02-24T18:16:21.315Z,47.70
2024-02-24T18:18:51.715Z,48.02
2024-02-24T18:21:21.402Z,50.14
2024-02-24T18:23:50.851Z,51.15
2024-02-24T18:26:20.515Z,52.21
2024-02-24T18:28:49.875Z,49.41
2024-02-24T18:31:19.491Z,48.96
2024-02-24T18:33:48.987Z,48.65
2024-02-24T18:36:20.103Z,48.61
2024-02-24T18:38:50.371Z,48.77
2024-02-24T18:44:24.690Z,48.04
2024-02-24T18:46:54.412Z,48.26
2024-02-24T18:49:25.032Z,48.44
2024-02-24T18:51:58.714Z,48.43
2024-02-24T18:54:30.424Z,47.73
2024-02-24T18:57:00.490Z,47.38
2024-02-24T18:59:30.015Z,47.80
2024-02-24T19:01:59.256Z,48.22
2024-02-24T19:04:30.820Z,48.57
2024-02-24T19:07:00.135Z,48.84
2024-02-24T19:09:30.130Z,48.66
2024-02-24T19:12:00.075Z,48.72
2024-02-24T19:17:11.903Z,49.48
2024-02-24T19:19:41.828Z,49.69
2024-02-24T19:25:16.476Z,51.19
2024-02-24T19:27:48.178Z,51.09
2024-02-24T19:30:17.792Z,50.93
2024-02-24T19:32:47.661Z,51.05
2024-02-24T19:35:17.408Z,51.15
2024-02-24T19:37:47.124Z,51.23
2024-02-24T19:40:17.001Z,51.44
2024-02-24T19:42:47.353Z,51.02
2024-02-24T19:45:16.785Z,50.05
2024-02-24T19:47:46.100Z,50.06
2024-02-24T19:50:15.554Z,50.52
2024-02-24T19:52:45.355Z,50.59
2024-02-24T19:55:14.496Z,50.78
2024-02-24T19:57:44.080Z,51.18
2024-02-24T20:00:14.825Z,51.21
2024-02-24T20:02:44.329Z,50.68
2024-02-24T20:05:13.746Z,50.84
2024-02-24T20:07:42.826Z,51.25
2024-02-24T20:10:12.056Z,51.13
2024-02-24T20:12:41.240Z,51.16
2024-02-24T20:15:11.664Z,51.12
2024-02-24T20:17:40.943Z,50.84
2024-02-24T20:20:10.597Z,51.19
2024-02-24T20:22:43.338Z,55.70
2024-02-24T20:25:12.665Z,58.48
2024-02-24T20:27:41.854Z,58.03
2024-02-24T20:30:14.580Z,57.54
2024-02-24T20:32:43.751Z,55.75
2024-02-24T20:35:13.082Z,55.28
2024-02-24T20:37:42.221Z,55.18
2024-02-24T20:40:12.395Z,55.26
2024-02-24T20:42:41.403Z,56.65
2024-02-24T20:45:11.309Z,56.32
2024-02-24T20:47:40.321Z,57.50
2024-02-24T20:50:10.039Z,60.26
2024-02-24T20:52:39.324Z,59.64
2024-02-24T20:55:09.281Z,60.49
2024-02-24T20:57:38.129Z,61.71
2024-02-24T21:00:08.025Z,62.89
2024-02-24T21:02:38.561Z,64.16
2024-02-24T21:05:08.379Z,63.88
2024-02-24T21:07:37.233Z,65.26
2024-02-24T21:10:06.314Z,66.24
2024-02-24T21:12:35.560Z,65.82
2024-02-24T21:15:04.925Z,68.42
2024-02-24T21:17:33.891Z,72.91
2024-02-24T21:20:07.121Z,73.52
2024-02-24T21:22:37.152Z,73.40
2024-02-24T21:25:09.315Z,73.37
2024-02-24T21:27:38.876Z,72.06
2024-02-24T21:30:09.479Z,70.23
2024-02-24T21:32:39.388Z,69.36
2024-02-24T21:35:09.146Z,68.28
2024-02-24T21:37:38.446Z,68.96
2024-02-24T21:40:08.967Z,70.51
2024-02-24T21:42:38.005Z,72.04
2024-02-24T21:45:08.008Z,72.51
2024-02-24T21:51:03.021Z,76.38
2024-02-24T21:56:57.920Z,74.81
2024-02-24T21:59:26.534Z,74.38
2024-02-24T22:01:54.842Z,74.25
2024-02-24T22:04:26.403Z,73.77
2024-02-24T22:06:55.781Z,73.68
2024-02-24T22:09:24.280Z,74.86
2024-02-24T22:11:52.849Z,77.05
2024-02-24T22:14:23.021Z,78.85
2024-02-24T22:16:51.461Z,79.67
2024-02-24T22:19:19.951Z,79.91
2024-02-24T22:21:48.826Z,80.50
2024-02-24T22:24:17.425Z,81.07
2024-02-24T22:26:48.921Z,81.46
2024-02-24T22:29:18.630Z,81.81
2024-02-24T22:31:48.203Z,81.87
2024-02-24T22:34:17.192Z,81.80
2024-02-24T22:36:45.522Z,81.62
2024-02-24T22:39:13.920Z,81.27
2024-02-24T22:41:42.575Z,81.00
2024-02-24T22:44:11.035Z,81.31
2024-02-24T22:46:40.295Z,81.78
2024-02-24T22:49:08.890Z,81.75
2024-02-24T22:51:37.548Z,81.54
2024-02-24T22:54:06.043Z,81.55
2024-02-24T22:56:36.304Z,81.47
2024-02-24T22:59:05.648Z,81.09
2024-02-24T23:01:34.338Z,81.28
2024-02-24T23:04:04.888Z,82.14
2024-02-24T23:06:33.853Z,82.84
2024-02-24T23:09:02.759Z,83.16
2024-02-24T23:11:36.168Z,83.31
2024-02-24T23:14:09.812Z,83.54
2024-02-24T23:16:39.657Z,83.28
2024-02-24T23:19:08.947Z,83.04
2024-02-24T23:21:38.147Z,82.65
2024-02-24T23:24:07.523Z,82.36
2024-02-24T23:26:36.572Z,82.17
2024-02-24T23:29:05.250Z,81.88
2024-02-24T23:31:34.308Z,81.47
2024-02-24T23:34:04.413Z,81.16
2024-02-24T23:36:32.897Z,81.05
2024-02-24T23:39:07.716Z,80.75
2024-02-24T23:41:37.053Z,80.80
2024-02-24T23:44:06.028Z,80.80
2024-02-24T23:46:34.481Z,80.83
2024-02-24T23:49:02.779Z,80.67
2024-02-24T23:51:33.168Z,80.37
2024-02-24T23:54:01.718Z,80.30
2024-02-24T23:56:32.763Z,80.20
2024-02-24T23:59:01.948Z,80.23
